sensor_id;sensor_type;location;lat;lon;timestamp;temperature;humidity
11093;DHT22;5600;50.864;6.102;2023-04-24T00:02:20;10.60;99.90
11093;DHT22;5600;50.864;6.102;2023-04-24T00:05:21;10.60;99.90
11093;DHT22;5600;50.864;6.102;2023-04-24T00:08:22;10.60;99.90
11093;DHT22;5600;50.864;6.102;2023-04-24T00:11:24;10.50;99.90
11093;DHT22;5600;50.864;6.102;2023-04-24T00:14:25;10.50;99.90
11093;DHT22;5600;50.864;6.102;2023-04-24T00:17:25;10.40;99.90
11093;DHT22;5600;50.864;6.102;2023-04-24T00:20:26;10.40;99.90
11093;DHT22;5600;50.864;6.102;2023-04-24T00:23:28;10.40;99.90
11093;DHT22;5600;50.864;6.102;2023-04-24T00:26:29;10.40;99.90
11093;DHT22;5600;50.864;6.102;2023-04-24T00:29:29;10.40;99.90
11093;DHT22;5600;50.864;6.102;2023-04-24T00:32:30;10.30;99.90
11093;DHT22;5600;50.864;6.102;2023-04-24T00:35:31;10.20;99.90
11093;DHT22;5600;50.864;6.102;2023-04-24T00:38:31;10.20;99.90
11093;DHT22;5600;50.864;6.102;2023-04-24T00:44:33;10.10;99.90
11093;DHT22;5600;50.864;6.102;2023-04-24T00:47:35;10.10;99.90
11093;DHT22;5600;50.864;6.102;2023-04-24T00:50:36;10.10;99.90
11093;DHT22;5600;50.864;6.102;2023-04-24T00:53:38;10.00;99.90
11093;DHT22;5600;50.864;6.102;2023-04-24T00:56:40;10.00;99.90
11093;DHT22;5600;50.864;6.102;2023-04-24T00:59:41;10.00;99.90
11093;DHT22;5600;50.864;6.102;2023-04-24T01:02:43;9.90;99.90
11093;DHT22;5600;50.864;6.102;2023-04-24T01:05:45;9.80;99.90
11093;DHT22;5600;50.864;6.102;2023-04-24T01:08:47;9.90;99.90
11093;DHT22;5600;50.864;6.102;2023-04-24T01:11:49;9.90;99.90
11093;DHT22;5600;50.864;6.102;2023-04-24T01:17:51;9.90;99.90
11093;DHT22;5600;50.864;6.102;2023-04-24T01:20:54;9.90;99.90
11093;DHT22;5600;50.864;6.102;2023-04-24T01:23:58;9.90;99.90
11093;DHT22;5600;50.864;6.102;2023-04-24T01:33:04;9.90;99.90
11093;DHT22;5600;50.864;6.102;2023-04-24T01:39:05;9.80;99.90
11093;DHT22;5600;50.864;6.102;2023-04-24T01:42:07;9.80;99.90
11093;DHT22;5600;50.864;6.102;2023-04-24T01:45:10;9.80;99.90
11093;DHT22;5600;50.864;6.102;2023-04-24T01:48:12;9.80;99.90
11093;DHT22;5600;50.864;6.102;2023-04-24T01:51:13;9.80;99.90
11093;DHT22;5600;50.864;6.102;2023-04-24T01:57:14;9.80;99.90
11093;DHT22;5600;50.864;6.102;2023-04-24T02:03:19;9.80;99.90
11093;DHT22;5600;50.864;6.102;2023-04-24T02:06:23;9.80;99.90
11093;DHT22;5600;50.864;6.102;2023-04-24T02:09:24;9.80;99.90
11093;DHT22;5600;50.864;6.102;2023-04-24T02:12:25;9.80;99.90
11093;DHT22;5600;50.864;6.102;2023-04-24T02:15:25;9.80;99.90
11093;DHT22;5600;50.864;6.102;2023-04-24T02:18:26;9.80;99.90
11093;DHT22;5600;50.864;6.102;2023-04-24T02:21:27;9.70;99.90
11093;DHT22;5600;50.864;6.102;2023-04-24T02:24:28;9.80;99.90
11093;DHT22;5600;50.864;6.102;2023-04-24T02:30:31;9.70;99.90
11093;DHT22;5600;50.864;6.102;2023-04-24T02:33:31;9.80;99.90
11093;DHT22;5600;50.864;6.102;2023-04-24T02:36:32;9.70;99.90
11093;DHT22;5600;50.864;6.102;2023-04-24T02:39:33;9.70;99.90
11093;DHT22;5600;50.864;6.102;2023-04-24T02:48:36;9.70;99.90
11093;DHT22;5600;50.864;6.102;2023-04-24T02:51:36;9.70;99.90
11093;DHT22;5600;50.864;6.102;2023-04-24T02:57:42;9.70;99.90
11093;DHT22;5600;50.864;6.102;2023-04-24T03:00:43;9.60;99.90
11093;DHT22;5600;50.864;6.102;2023-04-24T03:18:54;12.90;99.90
11093;DHT22;5600;50.864;6.102;2023-04-24T03:21:56;9.50;99.90
11093;DHT22;5600;50.864;6.102;2023-04-24T03:24:57;9.40;99.90
11093;DHT22;5600;50.864;6.102;2023-04-24T03:28:01;9.50;99.90
11093;DHT22;5600;50.864;6.102;2023-04-24T03:31:09;9.40;99.90
11093;DHT22;5600;50.864;6.102;2023-04-24T03:40:20;9.40;99.90
11093;DHT22;5600;50.864;6.102;2023-04-24T03:43:20;9.40;99.90
11093;DHT22;5600;50.864;6.102;2023-04-24T03:46:21;9.40;99.90
11093;DHT22;5600;50.864;6.102;2023-04-24T03:49:28;9.40;99.90
11093;DHT22;5600;50.864;6.102;2023-04-24T03:52:28;9.40;99.90
11093;DHT22;5600;50.864;6.102;2023-04-24T04:01:32;9.30;99.90
11093;DHT22;5600;50.864;6.102;2023-04-24T04:13:40;9.00;99.90
11093;DHT22;5600;50.864;6.102;2023-04-24T04:16:41;9.00;99.90
11093;DHT22;5600;50.864;6.102;2023-04-24T04:19:43;9.00;99.90
11093;DHT22;5600;50.864;6.102;2023-04-24T04:22:43;9.00;99.90
11093;DHT22;5600;50.864;6.102;2023-04-24T04:28:52;9.00;99.90
11093;DHT22;5600;50.864;6.102;2023-04-24T04:34:55;9.00;99.90
11093;DHT22;5600;50.864;6.102;2023-04-24T04:37:59;9.00;99.90
11093;DHT22;5600;50.864;6.102;2023-04-24T04:44:21;8.90;99.90
11093;DHT22;5600;50.864;6.102;2023-04-24T04:47:22;8.90;99.90
11093;DHT22;5600;50.864;6.102;2023-04-24T04:56:34;8.80;99.90
11093;DHT22;5600;50.864;6.102;2023-04-24T04:59:36;8.70;99.90
11093;DHT22;5600;50.864;6.102;2023-04-24T05:02:42;8.70;99.90
11093;DHT22;5600;50.864;6.102;2023-04-24T05:05:43;8.60;99.90
11093;DHT22;5600;50.864;6.102;2023-04-24T05:11:59;8.60;99.90
11093;DHT22;5600;50.864;6.102;2023-04-24T05:15:03;8.60;99.90
11093;DHT22;5600;50.864;6.102;2023-04-24T05:18:04;8.60;99.90
11093;DHT22;5600;50.864;6.102;2023-04-24T05:21:05;8.60;99.90
11093;DHT22;5600;50.864;6.102;2023-04-24T05:24:07;8.60;99.90
11093;DHT22;5600;50.864;6.102;2023-04-24T05:33:25;8.50;99.90
11093;DHT22;5600;50.864;6.102;2023-04-24T05:39:28;8.40;99.90
11093;DHT22;5600;50.864;6.102;2023-04-24T06:09:46;7.90;99.90
11093;DHT22;5600;50.864;6.102;2023-04-24T06:15:52;8.00;99.90
11093;DHT22;5600;50.864;6.102;2023-04-24T06:22:04;8.00;99.90
11093;DHT22;5600;50.864;6.102;2023-04-24T06:25:05;8.00;99.90
11093;DHT22;5600;50.864;6.102;2023-04-24T06:28:06;8.00;99.90
11093;DHT22;5600;50.864;6.102;2023-04-24T06:31:07;8.00;99.90
11093;DHT22;5600;50.864;6.102;2023-04-24T06:34:08;8.00;99.90
11093;DHT22;5600;50.864;6.102;2023-04-24T06:40:10;8.00;99.90
11093;DHT22;5600;50.864;6.102;2023-04-24T06:49:13;7.80;99.90
11093;DHT22;5600;50.864;6.102;2023-04-24T06:52:16;7.70;99.90
11093;DHT22;5600;50.864;6.102;2023-04-24T06:55:17;7.60;99.90
11093;DHT22;5600;50.864;6.102;2023-04-24T07:04:20;7.50;99.90
11093;DHT22;5600;50.864;6.102;2023-04-24T07:25:28;7.50;99.90
11093;DHT22;5600;50.864;6.102;2023-04-24T07:31:31;7.50;99.90
11093;DHT22;5600;50.864;6.102;2023-04-24T07:40:34;7.50;99.90
11093;DHT22;5600;50.864;6.102;2023-04-24T07:43:35;7.30;99.90
11093;DHT22;5600;50.864;6.102;2023-04-24T07:52:38;7.30;99.90
11093;DHT22;5600;50.864;6.102;2023-04-24T07:55:39;7.30;99.90
11093;DHT22;5600;50.864;6.102;2023-04-24T07:58:40;7.30;99.90
11093;DHT22;5600;50.864;6.102;2023-04-24T08:01:40;7.30;99.90
11093;DHT22;5600;50.864;6.102;2023-04-24T08:07:42;7.30;99.90
11093;DHT22;5600;50.864;6.102;2023-04-24T08:10:43;7.40;99.90
11093;DHT22;5600;50.864;6.102;2023-04-24T08:13:44;7.40;99.90
11093;DHT22;5600;50.864;6.102;2023-04-24T08:22:48;7.50;99.90
11093;DHT22;5600;50.864;6.102;2023-04-24T08:25:49;7.50;99.90
11093;DHT22;5600;50.864;6.102;2023-04-24T08:28:50;7.50;99.90
11093;DHT22;5600;50.864;6.102;2023-04-24T08:31:51;7.50;99.90
11093;DHT22;5600;50.864;6.102;2023-04-24T08:34:51;7.50;99.90
11093;DHT22;5600;50.864;6.102;2023-04-24T08:40:54;7.40;99.90
11093;DHT22;5600;50.864;6.102;2023-04-24T08:43:57;7.40;99.90
11093;DHT22;5600;50.864;6.102;2023-04-24T08:46:59;7.40;99.90
11093;DHT22;5600;50.864;6.102;2023-04-24T08:50:03;7.40;99.90
11093;DHT22;5600;50.864;6.102;2023-04-24T08:53:07;7.40;99.90
11093;DHT22;5600;50.864;6.102;2023-04-24T09:02:12;7.50;99.90
11093;DHT22;5600;50.864;6.102;2023-04-24T09:05:14;7.50;99.90
11093;DHT22;5600;50.864;6.102;2023-04-24T09:08:18;7.50;99.90
11093;DHT22;5600;50.864;6.102;2023-04-24T09:11:19;7.60;99.90
11093;DHT22;5600;50.864;6.102;2023-04-24T09:14:20;7.60;99.90
11093;DHT22;5600;50.864;6.102;2023-04-24T09:17:21;7.60;99.90
11093;DHT22;5600;50.864;6.102;2023-04-24T09:20:23;7.60;99.90
11093;DHT22;5600;50.864;6.102;2023-04-24T09:23:26;7.60;99.90
11093;DHT22;5600;50.864;6.102;2023-04-24T09:26:30;7.60;99.90
11093;DHT22;5600;50.864;6.102;2023-04-24T09:29:32;7.70;99.90
11093;DHT22;5600;50.864;6.102;2023-04-24T09:32:34;7.80;99.90
11093;DHT22;5600;50.864;6.102;2023-04-24T09:35:35;7.80;99.90
11093;DHT22;5600;50.864;6.102;2023-04-24T09:38:37;7.80;99.90
11093;DHT22;5600;50.864;6.102;2023-04-24T09:44:49;7.90;99.90
11093;DHT22;5600;50.864;6.102;2023-04-24T09:47:52;8.10;99.90
11093;DHT22;5600;50.864;6.102;2023-04-24T09:50:54;8.30;99.90
11093;DHT22;5600;50.864;6.102;2023-04-24T09:53:55;8.60;99.90
11093;DHT22;5600;50.864;6.102;2023-04-24T09:56:58;8.80;99.90
11093;DHT22;5600;50.864;6.102;2023-04-24T10:00:01;8.90;99.90
11093;DHT22;5600;50.864;6.102;2023-04-24T10:03:12;9.00;99.90
11093;DHT22;5600;50.864;6.102;2023-04-24T10:06:12;8.90;99.90
11093;DHT22;5600;50.864;6.102;2023-04-24T10:09:13;8.80;99.90
11093;DHT22;5600;50.864;6.102;2023-04-24T10:12:14;8.60;99.90
11093;DHT22;5600;50.864;6.102;2023-04-24T10:15:16;8.50;99.90
11093;DHT22;5600;50.864;6.102;2023-04-24T10:18:21;8.40;99.90
11093;DHT22;5600;50.864;6.102;2023-04-24T10:21:22;8.40;99.90
11093;DHT22;5600;50.864;6.102;2023-04-24T10:24:23;8.40;99.90
11093;DHT22;5600;50.864;6.102;2023-04-24T10:27:26;8.50;99.90
11093;DHT22;5600;50.864;6.102;2023-04-24T10:30:34;8.80;99.90
11093;DHT22;5600;50.864;6.102;2023-04-24T10:33:38;9.20;99.90
11093;DHT22;5600;50.864;6.102;2023-04-24T10:36:45;9.50;99.90
11093;DHT22;5600;50.864;6.102;2023-04-24T10:39:49;9.80;99.90
11093;DHT22;5600;50.864;6.102;2023-04-24T10:42:52;10.10;99.90
11093;DHT22;5600;50.864;6.102;2023-04-24T10:46:05;10.30;99.90
11093;DHT22;5600;50.864;6.102;2023-04-24T10:49:06;10.30;99.90
11093;DHT22;5600;50.864;6.102;2023-04-24T10:52:09;10.30;99.90
11093;DHT22;5600;50.864;6.102;2023-04-24T10:55:09;10.40;99.90
11093;DHT22;5600;50.864;6.102;2023-04-24T10:58:10;10.50;99.90
11093;DHT22;5600;50.864;6.102;2023-04-24T11:01:26;10.50;99.90
11093;DHT22;5600;50.864;6.102;2023-04-24T11:04:32;10.60;99.90
11093;DHT22;5600;50.864;6.102;2023-04-24T11:08:12;10.70;99.90
11093;DHT22;5600;50.864;6.102;2023-04-24T11:11:14;10.70;99.90
11093;DHT22;5600;50.864;6.102;2023-04-24T11:14:16;10.80;99.90
11093;DHT22;5600;50.864;6.102;2023-04-24T11:17:29;10.80;99.90
11093;DHT22;5600;50.864;6.102;2023-04-24T11:20:30;10.80;99.90
11093;DHT22;5600;50.864;6.102;2023-04-24T11:23:36;10.80;99.90
11093;DHT22;5600;50.864;6.102;2023-04-24T11:26:38;10.80;99.90
11093;DHT22;5600;50.864;6.102;2023-04-24T11:29:47;10.80;99.90
11093;DHT22;5600;50.864;6.102;2023-04-24T11:32:50;11.10;99.90
11093;DHT22;5600;50.864;6.102;2023-04-24T11:35:51;11.40;99.90
11093;DHT22;5600;50.864;6.102;2023-04-24T11:38:52;11.40;99.90
11093;DHT22;5600;50.864;6.102;2023-04-24T11:41:53;11.50;99.90
11093;DHT22;5600;50.864;6.102;2023-04-24T11:44:55;11.50;99.90
11093;DHT22;5600;50.864;6.102;2023-04-24T11:48:00;11.40;99.90
11093;DHT22;5600;50.864;6.102;2023-04-24T11:51:02;11.40;99.90
11093;DHT22;5600;50.864;6.102;2023-04-24T11:54:07;11.40;99.90
11093;DHT22;5600;50.864;6.102;2023-04-24T11:57:08;11.40;99.90
11093;DHT22;5600;50.864;6.102;2023-04-24T12:00:14;11.50;99.90
11093;DHT22;5600;50.864;6.102;2023-04-24T12:03:15;11.50;99.90
11093;DHT22;5600;50.864;6.102;2023-04-24T12:06:16;11.50;99.90
11093;DHT22;5600;50.864;6.102;2023-04-24T12:09:17;11.40;99.90
11093;DHT22;5600;50.864;6.102;2023-04-24T12:12:18;11.40;99.90
11093;DHT22;5600;50.864;6.102;2023-04-24T12:15:20;11.40;99.90
11093;DHT22;5600;50.864;6.102;2023-04-24T12:18:24;11.40;99.90
11093;DHT22;5600;50.864;6.102;2023-04-24T12:21:26;11.50;99.90
11093;DHT22;5600;50.864;6.102;2023-04-24T12:24:29;11.60;99.90
11093;DHT22;5600;50.864;6.102;2023-04-24T12:27:32;11.80;99.90
11093;DHT22;5600;50.864;6.102;2023-04-24T12:30:42;12.00;99.90
11093;DHT22;5600;50.864;6.102;2023-04-24T12:33:45;12.00;99.90
11093;DHT22;5600;50.864;6.102;2023-04-24T12:36:46;12.10;99.90
11093;DHT22;5600;50.864;6.102;2023-04-24T12:40:10;12.00;99.90
11093;DHT22;5600;50.864;6.102;2023-04-24T12:43:16;11.80;99.90
11093;DHT22;5600;50.864;6.102;2023-04-24T12:46:17;11.80;99.90
11093;DHT22;5600;50.864;6.102;2023-04-24T12:49:17;12.10;99.90
11093;DHT22;5600;50.864;6.102;2023-04-24T12:52:19;12.20;99.90
11093;DHT22;5600;50.864;6.102;2023-04-24T12:55:22;12.30;99.90
11093;DHT22;5600;50.864;6.102;2023-04-24T12:58:23;12.30;99.90
11093;DHT22;5600;50.864;6.102;2023-04-24T13:01:24;12.20;99.90
11093;DHT22;5600;50.864;6.102;2023-04-24T13:04:25;12.10;99.90
11093;DHT22;5600;50.864;6.102;2023-04-24T13:07:27;12.10;99.90
11093;DHT22;5600;50.864;6.102;2023-04-24T13:10:28;12.10;99.90
11093;DHT22;5600;50.864;6.102;2023-04-24T13:13:29;12.30;99.90
11093;DHT22;5600;50.864;6.102;2023-04-24T13:16:30;12.40;99.90
11093;DHT22;5600;50.864;6.102;2023-04-24T13:19:35;12.50;99.90
11093;DHT22;5600;50.864;6.102;2023-04-24T13:22:36;12.50;99.90
11093;DHT22;5600;50.864;6.102;2023-04-24T13:25:37;12.50;99.90
11093;DHT22;5600;50.864;6.102;2023-04-24T13:28:39;12.40;99.90
11093;DHT22;5600;50.864;6.102;2023-04-24T13:31:40;12.50;99.90
11093;DHT22;5600;50.864;6.102;2023-04-24T13:37:42;12.70;99.90
11093;DHT22;5600;50.864;6.102;2023-04-24T13:40:43;12.80;99.90
11093;DHT22;5600;50.864;6.102;2023-04-24T13:46:48;12.80;99.90
11093;DHT22;5600;50.864;6.102;2023-04-24T13:49:49;12.80;99.90
11093;DHT22;5600;50.864;6.102;2023-04-24T13:52:50;12.80;99.90
11093;DHT22;5600;50.864;6.102;2023-04-24T13:58:52;12.80;99.90
11093;DHT22;5600;50.864;6.102;2023-04-24T14:01:54;12.60;99.90
11093;DHT22;5600;50.864;6.102;2023-04-24T14:04:55;14.50;99.90
11093;DHT22;5600;50.864;6.102;2023-04-24T14:07:56;12.70;99.90
11093;DHT22;5600;50.864;6.102;2023-04-24T14:10:56;13.00;99.90
11093;DHT22;5600;50.864;6.102;2023-04-24T14:13:57;13.00;99.90
11093;DHT22;5600;50.864;6.102;2023-04-24T14:16:58;13.60;99.90
11093;DHT22;5600;50.864;6.102;2023-04-24T14:19:59;13.70;99.90
11093;DHT22;5600;50.864;6.102;2023-04-24T14:23:01;14.00;99.90
11093;DHT22;5600;50.864;6.102;2023-04-24T14:26:03;14.60;99.90
11093;DHT22;5600;50.864;6.102;2023-04-24T14:29:04;15.00;99.90
11093;DHT22;5600;50.864;6.102;2023-04-24T14:32:05;15.10;99.90
11093;DHT22;5600;50.864;6.102;2023-04-24T14:35:06;14.70;99.90
11093;DHT22;5600;50.864;6.102;2023-04-24T14:38:07;14.60;99.90
11093;DHT22;5600;50.864;6.102;2023-04-24T14:41:09;14.60;99.90
11093;DHT22;5600;50.864;6.102;2023-04-24T14:44:10;14.40;99.90
11093;DHT22;5600;50.864;6.102;2023-04-24T14:47:11;14.60;99.90
11093;DHT22;5600;50.864;6.102;2023-04-24T14:50:12;14.50;99.90
11093;DHT22;5600;50.864;6.102;2023-04-24T14:53:13;14.40;99.90
11093;DHT22;5600;50.864;6.102;2023-04-24T14:56:15;14.20;99.90
11093;DHT22;5600;50.864;6.102;2023-04-24T15:02:17;14.30;99.90
11093;DHT22;5600;50.864;6.102;2023-04-24T15:05:17;14.20;99.90
11093;DHT22;5600;50.864;6.102;2023-04-24T15:08:18;13.90;99.90
11093;DHT22;5600;50.864;6.102;2023-04-24T15:11:19;13.90;99.90
11093;DHT22;5600;50.864;6.102;2023-04-24T15:14:20;13.80;99.90
11093;DHT22;5600;50.864;6.102;2023-04-24T15:17:21;13.50;99.90
11093;DHT22;5600;50.864;6.102;2023-04-24T15:20:22;13.60;99.90
11093;DHT22;5600;50.864;6.102;2023-04-24T15:23:22;13.40;99.90
11093;DHT22;5600;50.864;6.102;2023-04-24T15:26:24;13.30;99.90
11093;DHT22;5600;50.864;6.102;2023-04-24T15:29:24;13.20;99.90
11093;DHT22;5600;50.864;6.102;2023-04-24T15:32:26;13.00;99.90
11093;DHT22;5600;50.864;6.102;2023-04-24T15:35:27;13.00;99.90
11093;DHT22;5600;50.864;6.102;2023-04-24T15:38:28;12.90;99.90
11093;DHT22;5600;50.864;6.102;2023-04-24T15:41:28;12.90;99.90
11093;DHT22;5600;50.864;6.102;2023-04-24T15:44:29;12.90;99.90
11093;DHT22;5600;50.864;6.102;2023-04-24T15:47:31;12.80;99.90
11093;DHT22;5600;50.864;6.102;2023-04-24T15:50:32;12.80;99.90
11093;DHT22;5600;50.864;6.102;2023-04-24T15:56:33;12.70;99.90
11093;DHT22;5600;50.864;6.102;2023-04-24T15:59:36;12.70;99.90
11093;DHT22;5600;50.864;6.102;2023-04-24T16:02:37;12.70;99.90
11093;DHT22;5600;50.864;6.102;2023-04-24T16:05:38;12.70;99.90
11093;DHT22;5600;50.864;6.102;2023-04-24T16:08:39;12.60;99.90
11093;DHT22;5600;50.864;6.102;2023-04-24T16:11:40;12.60;99.90
11093;DHT22;5600;50.864;6.102;2023-04-24T16:17:42;12.90;99.90
11093;DHT22;5600;50.864;6.102;2023-04-24T16:20:42;12.80;99.90
11093;DHT22;5600;50.864;6.102;2023-04-24T16:23:43;12.70;99.90
11093;DHT22;5600;50.864;6.102;2023-04-24T16:26:44;12.70;99.90
11093;DHT22;5600;50.864;6.102;2023-04-24T16:29:44;12.60;99.90
11093;DHT22;5600;50.864;6.102;2023-04-24T16:32:45;12.60;99.90
11093;DHT22;5600;50.864;6.102;2023-04-24T16:35:46;12.50;99.90
11093;DHT22;5600;50.864;6.102;2023-04-24T16:38:47;12.50;99.90
11093;DHT22;5600;50.864;6.102;2023-04-24T16:41:48;12.50;99.90
11093;DHT22;5600;50.864;6.102;2023-04-24T16:44:49;12.40;99.90
11093;DHT22;5600;50.864;6.102;2023-04-24T16:47:50;12.40;99.90
11093;DHT22;5600;50.864;6.102;2023-04-24T16:50:51;12.40;99.90
11093;DHT22;5600;50.864;6.102;2023-04-24T16:53:51;12.40;99.90
11093;DHT22;5600;50.864;6.102;2023-04-24T16:56:53;12.30;99.90
11093;DHT22;5600;50.864;6.102;2023-04-24T16:59:54;12.30;99.90
11093;DHT22;5600;50.864;6.102;2023-04-24T17:02:54;12.30;99.90
11093;DHT22;5600;50.864;6.102;2023-04-24T17:05:55;13.10;99.90
11093;DHT22;5600;50.864;6.102;2023-04-24T17:08:56;12.30;99.90
11093;DHT22;5600;50.864;6.102;2023-04-24T17:11:57;12.30;99.90
11093;DHT22;5600;50.864;6.102;2023-04-24T17:14:58;12.30;99.90
11093;DHT22;5600;50.864;6.102;2023-04-24T17:17:59;12.30;99.90
11093;DHT22;5600;50.864;6.102;2023-04-24T17:20:59;12.30;99.90
11093;DHT22;5600;50.864;6.102;2023-04-24T17:24:00;12.20;99.90
11093;DHT22;5600;50.864;6.102;2023-04-24T17:27:02;12.30;99.90
11093;DHT22;5600;50.864;6.102;2023-04-24T17:30:03;12.30;99.90
11093;DHT22;5600;50.864;6.102;2023-04-24T17:33:03;12.30;99.90
11093;DHT22;5600;50.864;6.102;2023-04-24T17:36:04;12.30;99.90
11093;DHT22;5600;50.864;6.102;2023-04-24T17:39:06;12.30;99.90
11093;DHT22;5600;50.864;6.102;2023-04-24T17:42:09;12.40;99.90
11093;DHT22;5600;50.864;6.102;2023-04-24T17:45:10;12.30;99.90
11093;DHT22;5600;50.864;6.102;2023-04-24T17:48:12;12.30;99.90
11093;DHT22;5600;50.864;6.102;2023-04-24T17:51:13;12.20;99.90
11093;DHT22;5600;50.864;6.102;2023-04-24T17:54:13;12.10;99.90
11093;DHT22;5600;50.864;6.102;2023-04-24T17:57:14;12.00;99.90
11093;DHT22;5600;50.864;6.102;2023-04-24T18:00:15;11.80;99.90
11093;DHT22;5600;50.864;6.102;2023-04-24T18:03:16;11.80;99.90
11093;DHT22;5600;50.864;6.102;2023-04-24T18:06:17;11.70;99.90
11093;DHT22;5600;50.864;6.102;2023-04-24T18:09:18;11.40;99.90
11093;DHT22;5600;50.864;6.102;2023-04-24T18:12:20;11.40;99.90
11093;DHT22;5600;50.864;6.102;2023-04-24T18:15:21;11.20;99.90
11093;DHT22;5600;50.864;6.102;2023-04-24T18:18:21;11.20;99.90
11093;DHT22;5600;50.864;6.102;2023-04-24T18:21:22;11.20;99.90
11093;DHT22;5600;50.864;6.102;2023-04-24T18:24:24;11.10;99.90
11093;DHT22;5600;50.864;6.102;2023-04-24T18:27:25;10.90;99.90
11093;DHT22;5600;50.864;6.102;2023-04-24T18:30:28;10.90;99.90
11093;DHT22;5600;50.864;6.102;2023-04-24T18:33:31;10.90;99.90
11093;DHT22;5600;50.864;6.102;2023-04-24T18:36:32;10.90;99.90
11093;DHT22;5600;50.864;6.102;2023-04-24T18:39:33;10.90;99.90
11093;DHT22;5600;50.864;6.102;2023-04-24T18:42:33;10.80;99.90
11093;DHT22;5600;50.864;6.102;2023-04-24T18:45:34;10.80;99.90
11093;DHT22;5600;50.864;6.102;2023-04-24T18:48:35;10.70;99.90
11093;DHT22;5600;50.864;6.102;2023-04-24T18:51:36;10.70;99.90
11093;DHT22;5600;50.864;6.102;2023-04-24T18:54:36;10.70;99.90
11093;DHT22;5600;50.864;6.102;2023-04-24T18:57:37;10.70;99.90
11093;DHT22;5600;50.864;6.102;2023-04-24T19:00:37;10.70;99.90
11093;DHT22;5600;50.864;6.102;2023-04-24T19:03:38;10.60;99.90
11093;DHT22;5600;50.864;6.102;2023-04-24T19:06:39;10.70;99.90
11093;DHT22;5600;50.864;6.102;2023-04-24T19:09:39;10.60;99.90
11093;DHT22;5600;50.864;6.102;2023-04-24T19:12:40;10.50;99.90
11093;DHT22;5600;50.864;6.102;2023-04-24T19:15:41;10.50;99.90
11093;DHT22;5600;50.864;6.102;2023-04-24T19:18:41;10.40;99.90
11093;DHT22;5600;50.864;6.102;2023-04-24T19:21:43;10.40;99.90
11093;DHT22;5600;50.864;6.102;2023-04-24T19:24:44;10.30;99.90
11093;DHT22;5600;50.864;6.102;2023-04-24T19:27:45;10.30;99.90
11093;DHT22;5600;50.864;6.102;2023-04-24T19:30:46;10.30;99.90
11093;DHT22;5600;50.864;6.102;2023-04-24T19:33:46;10.30;99.90
11093;DHT22;5600;50.864;6.102;2023-04-24T19:36:48;10.20;99.90
11093;DHT22;5600;50.864;6.102;2023-04-24T19:39:48;10.20;99.90
11093;DHT22;5600;50.864;6.102;2023-04-24T19:42:49;10.20;99.90
11093;DHT22;5600;50.864;6.102;2023-04-24T19:45:50;10.10;99.90
11093;DHT22;5600;50.864;6.102;2023-04-24T19:48:50;10.20;99.90
11093;DHT22;5600;50.864;6.102;2023-04-24T19:51:51;10.10;99.90
11093;DHT22;5600;50.864;6.102;2023-04-24T19:54:51;10.10;99.90
11093;DHT22;5600;50.864;6.102;2023-04-24T19:57:52;10.00;99.90
11093;DHT22;5600;50.864;6.102;2023-04-24T20:00:53;10.00;99.90
11093;DHT22;5600;50.864;6.102;2023-04-24T20:03:53;9.90;99.90
11093;DHT22;5600;50.864;6.102;2023-04-24T20:06:54;9.80;99.90
11093;DHT22;5600;50.864;6.102;2023-04-24T20:09:55;9.80;99.90
11093;DHT22;5600;50.864;6.102;2023-04-24T20:12:55;9.70;99.90
11093;DHT22;5600;50.864;6.102;2023-04-24T20:15:56;9.70;99.90
11093;DHT22;5600;50.864;6.102;2023-04-24T20:18:57;9.70;99.90
11093;DHT22;5600;50.864;6.102;2023-04-24T20:21:58;9.70;99.90
11093;DHT22;5600;50.864;6.102;2023-04-24T20:24:59;9.70;99.90
11093;DHT22;5600;50.864;6.102;2023-04-24T20:27:59;9.70;99.90
11093;DHT22;5600;50.864;6.102;2023-04-24T20:31:01;9.60;99.90
11093;DHT22;5600;50.864;6.102;2023-04-24T20:34:02;9.60;99.90
11093;DHT22;5600;50.864;6.102;2023-04-24T20:37:03;9.60;99.90
11093;DHT22;5600;50.864;6.102;2023-04-24T20:40:05;9.40;99.90
11093;DHT22;5600;50.864;6.102;2023-04-24T20:43:06;9.40;99.90
11093;DHT22;5600;50.864;6.102;2023-04-24T20:46:07;9.40;99.90
11093;DHT22;5600;50.864;6.102;2023-04-24T20:52:08;9.20;99.90
11093;DHT22;5600;50.864;6.102;2023-04-24T20:55:09;9.20;99.90
11093;DHT22;5600;50.864;6.102;2023-04-24T20:58:10;9.10;99.90
11093;DHT22;5600;50.864;6.102;2023-04-24T21:01:11;9.10;99.90
11093;DHT22;5600;50.864;6.102;2023-04-24T21:04:11;9.00;99.90
11093;DHT22;5600;50.864;6.102;2023-04-24T21:07:12;9.10;99.90
11093;DHT22;5600;50.864;6.102;2023-04-24T21:10:13;9.10;99.90
11093;DHT22;5600;50.864;6.102;2023-04-24T21:13:13;9.10;99.90
11093;DHT22;5600;50.864;6.102;2023-04-24T21:16:14;9.00;99.90
11093;DHT22;5600;50.864;6.102;2023-04-24T21:19:15;11.60;99.90
11093;DHT22;5600;50.864;6.102;2023-04-24T21:22:15;9.10;99.90
11093;DHT22;5600;50.864;6.102;2023-04-24T21:25:16;9.10;99.90
11093;DHT22;5600;50.864;6.102;2023-04-24T21:28:17;9.00;99.90
11093;DHT22;5600;50.864;6.102;2023-04-24T21:31:18;9.10;99.90
11093;DHT22;5600;50.864;6.102;2023-04-24T21:34:18;9.00;99.90
11093;DHT22;5600;50.864;6.102;2023-04-24T21:37:19;9.10;99.90
11093;DHT22;5600;50.864;6.102;2023-04-24T21:40:19;9.00;99.90
11093;DHT22;5600;50.864;6.102;2023-04-24T21:43:20;9.00;99.90
11093;DHT22;5600;50.864;6.102;2023-04-24T21:46:21;9.00;99.90
11093;DHT22;5600;50.864;6.102;2023-04-24T21:49:22;9.00;99.90
11093;DHT22;5600;50.864;6.102;2023-04-24T21:52:22;8.90;99.90
11093;DHT22;5600;50.864;6.102;2023-04-24T21:55:23;8.90;99.90
11093;DHT22;5600;50.864;6.102;2023-04-24T21:58:24;8.90;99.90
11093;DHT22;5600;50.864;6.102;2023-04-24T22:01:25;8.90;99.90
11093;DHT22;5600;50.864;6.102;2023-04-24T22:04:27;8.90;99.90
11093;DHT22;5600;50.864;6.102;2023-04-24T22:07:28;8.90;99.90
11093;DHT22;5600;50.864;6.102;2023-04-24T22:10:28;8.90;99.90
11093;DHT22;5600;50.864;6.102;2023-04-24T22:16:30;8.90;99.90
11093;DHT22;5600;50.864;6.102;2023-04-24T22:22:33;8.80;99.90
11093;DHT22;5600;50.864;6.102;2023-04-24T22:25:33;8.90;99.90
11093;DHT22;5600;50.864;6.102;2023-04-24T22:28:34;8.90;99.90
11093;DHT22;5600;50.864;6.102;2023-04-24T22:31:35;8.90;99.90
11093;DHT22;5600;50.864;6.102;2023-04-24T22:34:35;8.80;99.90
11093;DHT22;5600;50.864;6.102;2023-04-24T22:37:36;8.70;99.90
11093;DHT22;5600;50.864;6.102;2023-04-24T22:40:37;8.80;99.90
11093;DHT22;5600;50.864;6.102;2023-04-24T22:43:38;8.70;99.90
11093;DHT22;5600;50.864;6.102;2023-04-24T22:46:39;8.70;99.90
11093;DHT22;5600;50.864;6.102;2023-04-24T22:49:39;8.60;99.90
11093;DHT22;5600;50.864;6.102;2023-04-24T22:52:42;8.60;99.90
11093;DHT22;5600;50.864;6.102;2023-04-24T22:55:43;8.50;99.90
11093;DHT22;5600;50.864;6.102;2023-04-24T22:58:44;8.50;99.90
11093;DHT22;5600;50.864;6.102;2023-04-24T23:01:44;8.50;99.90
11093;DHT22;5600;50.864;6.102;2023-04-24T23:04:45;8.50;99.90
11093;DHT22;5600;50.864;6.102;2023-04-24T23:07:46;8.40;99.90
11093;DHT22;5600;50.864;6.102;2023-04-24T23:10:47;8.40;99.90
11093;DHT22;5600;50.864;6.102;2023-04-24T23:13:48;8.30;99.90
11093;DHT22;5600;50.864;6.102;2023-04-24T23:16:49;8.30;99.90
11093;DHT22;5600;50.864;6.102;2023-04-24T23:19:49;8.30;99.90
11093;DHT22;5600;50.864;6.102;2023-04-24T23:22:50;8.30;99.90
11093;DHT22;5600;50.864;6.102;2023-04-24T23:25:51;8.30;99.90